Terminal Aerodrome Forecast
Issued by NWS

Current Version | Previous Version | Text Only | Print | Product List | Glossary On
Versions: 1 2 3 4 5 6 7 8 9 10 11 12 13 14 15 16 17 18 19 20 21 22
000
FTPA31 PHFO 291700
TAFJHM
TAF
PHJH 291720Z 2918/3018 06011KT P6SM FEW035
     FM292000 06014G22KT P6SM FEW035 SCT050
     FM300600 06010G15KT P6SM FEW035
     FM300900 06009KT P6SM SKC
      AMD NOT SKED AFT 300400=

USA.gov is the U.S. government's official web portal to all federal, state and local government web resources and services.